createdAt,value
2022-11-24T00:00:44.439Z,98506.25
2022-11-24T00:03:51.792Z,98515.72
2022-11-24T00:06:53.478Z,98524.13
2022-11-24T00:09:55.039Z,98526.50
2022-11-24T00:12:56.622Z,98525.97
2022-11-24T00:16:24.822Z,98517.47
2022-11-24T00:19:26.463Z,98520.97
2022-11-24T00:22:27.993Z,98519.78
2022-11-24T00:25:29.565Z,98528.63
2022-11-24T00:28:32.795Z,98528.94
2022-11-24T00:31:40.631Z,98531.66
2022-11-24T00:34:42.329Z,98529.00
2022-11-24T00:37:43.985Z,98524.78
2022-11-24T00:40:45.553Z,98539.44
2022-11-24T00:43:47.168Z,98542.88
2022-11-24T00:46:48.946Z,98548.94
2022-11-24T00:49:50.683Z,98538.50
2022-11-24T00:52:52.320Z,98564.00
2022-11-24T00:55:54.836Z,98570.59
2022-11-24T00:58:56.756Z,98557.03
2022-11-24T01:01:58.446Z,98567.81
2022-11-24T01:05:00.114Z,98566.97
2022-11-24T01:08:01.726Z,98560.06
2022-11-24T01:11:11.301Z,98561.03
2022-11-24T01:14:12.968Z,98584.38
2022-11-24T01:17:14.527Z,98579.56
2022-11-24T01:20:16.265Z,98566.63
2022-11-24T01:23:17.863Z,98576.63
2022-11-24T01:26:21.576Z,98575.81
2022-11-24T01:29:23.327Z,98584.22
2022-11-24T01:32:24.909Z,98587.47
2022-11-24T01:35:26.677Z,98595.41
2022-11-24T01:38:28.439Z,98589.63
2022-11-24T01:41:30.138Z,98597.13
2022-11-24T01:44:32.108Z,98598.75
2022-11-24T01:47:40.906Z,98600.31
2022-11-24T01:50:43.877Z,98606.25
2022-11-24T01:53:51.765Z,98604.34
2022-11-24T01:56:56.941Z,98605.66
2022-11-24T02:00:06.268Z,98598.41
2022-11-24T02:03:20.378Z,98600.19
2022-11-24T02:06:33.267Z,98592.34
2022-11-24T02:09:42.977Z,98584.88
2022-11-24T02:12:47.578Z,98589.66
2022-11-24T02:15:49.530Z,98588.50
2022-11-24T02:18:51.587Z,98580.03
2022-11-24T02:21:53.170Z,98582.66
2022-11-24T02:25:03.577Z,98578.19
2022-11-24T02:28:08.023Z,98575.63
2022-11-24T02:31:09.757Z,98587.66
2022-11-24T02:34:11.388Z,98584.50
2022-11-24T02:37:13.136Z,98572.34
2022-11-24T02:40:16.659Z,98576.94
2022-11-24T02:43:23.337Z,98579.06
2022-11-24T02:46:25.063Z,98590.72
2022-11-24T02:49:26.791Z,98597.75
2022-11-24T02:52:28.425Z,98592.34
2022-11-24T02:55:30.146Z,98582.84
2022-11-24T02:58:32.194Z,98607.41
2022-11-24T03:01:33.843Z,98597.31
2022-11-24T03:04:35.847Z,98602.00
2022-11-24T03:07:37.927Z,98595.63
2022-11-24T03:10:39.900Z,98600.22
2022-11-24T03:13:41.604Z,98610.34
2022-11-24T03:16:43.212Z,98608.09
2022-11-24T03:19:44.984Z,98616.94
2022-11-24T03:22:46.586Z,98619.91
2022-11-24T03:25:48.226Z,98605.34
2022-11-24T03:28:50.305Z,98608.34
2022-11-24T03:31:51.882Z,98598.84
2022-11-24T03:34:53.476Z,98602.75
2022-11-24T03:37:55.149Z,98622.38
2022-11-24T03:40:56.747Z,98625.38
2022-11-24T03:43:58.432Z,98629.56
2022-11-24T03:47:00.051Z,98609.50
2022-11-24T03:50:01.713Z,98613.00
2022-11-24T03:53:03.353Z,98614.47
2022-11-24T03:56:05.049Z,98633.66
2022-11-24T03:59:06.697Z,98621.19
2022-11-24T04:02:08.325Z,98626.84
2022-11-24T04:05:10.418Z,98621.63
2022-11-24T04:08:12.090Z,98630.34
2022-11-24T04:11:33.653Z,98628.91
2022-11-24T04:14:35.750Z,98641.41
2022-11-24T04:17:37.681Z,98642.34
2022-11-24T04:20:40.719Z,98661.78
2022-11-24T04:23:42.505Z,98661.63
2022-11-24T04:26:44.176Z,98666.81
2022-11-24T04:29:45.883Z,98668.25
2022-11-24T04:32:47.961Z,98644.09
2022-11-24T04:35:53.451Z,98666.44
2022-11-24T04:39:24.377Z,98666.56
2022-11-24T04:42:16.673Z,98646.81
2022-11-24T04:45:18.436Z,98664.19
2022-11-24T04:48:20.075Z,98664.00
2022-11-24T04:51:21.633Z,98675.41
2022-11-24T04:54:23.976Z,98669.88
2022-11-24T04:57:26.834Z,98674.53
2022-11-24T05:00:28.429Z,98660.63
2022-11-24T05:03:30.376Z,98683.44
2022-11-24T05:06:33.229Z,98688.50
2022-11-24T05:09:59.208Z,98674.09
2022-11-24T05:13:02.550Z,98665.03
2022-11-24T05:16:04.567Z,98654.66
2022-11-24T05:19:06.240Z,98660.38
2022-11-24T05:22:07.904Z,98652.63
2022-11-24T05:25:09.830Z,98661.63
2022-11-24T05:28:11.529Z,98662.78
2022-11-24T05:31:13.213Z,98657.25
2022-11-24T05:34:15.510Z,98658.34
2022-11-24T05:37:17.760Z,98654.72
2022-11-24T05:40:19.570Z,98648.09
2022-11-24T05:43:21.261Z,98652.50
2022-11-24T05:46:22.876Z,98667.56
2022-11-24T05:49:24.510Z,98670.06
2022-11-24T05:52:26.118Z,98689.53
2022-11-24T05:55:27.824Z,98678.03
2022-11-24T05:58:29.862Z,98710.56
2022-11-24T06:01:31.526Z,98733.53
2022-11-24T06:04:33.457Z,98756.97
2022-11-24T06:07:35.535Z,98761.88
2022-11-24T06:10:37.230Z,98766.31
2022-11-24T06:13:41.868Z,98765.81
2022-11-24T06:16:43.649Z,98775.00
2022-11-24T06:19:47.888Z,98773.06
2022-11-24T06:22:49.709Z,98778.16
2022-11-24T06:25:51.676Z,98771.81
2022-11-24T06:28:53.379Z,98759.50
2022-11-24T06:31:55.067Z,98766.94
2022-11-24T06:34:56.782Z,98776.88
2022-11-24T06:37:58.744Z,98777.06
2022-11-24T06:41:06.523Z,98783.69
2022-11-24T06:44:08.294Z,98783.38
2022-11-24T06:47:09.888Z,98784.44
2022-11-24T06:50:11.824Z,98799.31
2022-11-24T06:53:13.417Z,98812.63
2022-11-24T06:56:19.239Z,98819.59
2022-11-24T06:59:20.947Z,98816.09
2022-11-24T07:02:22.926Z,98825.88
2022-11-24T07:05:24.513Z,98810.38
2022-11-24T07:08:28.898Z,98814.34
2022-11-24T07:11:30.712Z,98816.69
2022-11-24T07:14:33.258Z,98820.69
2022-11-24T07:17:40.097Z,98816.69
2022-11-24T07:20:41.714Z,98821.78
2022-11-24T07:23:44.332Z,98831.91
2022-11-24T07:26:45.927Z,98837.47
2022-11-24T07:29:47.700Z,98850.91
2022-11-24T07:32:49.502Z,98854.72
2022-11-24T07:35:54.203Z,98834.91
2022-11-24T07:38:55.833Z,98854.03
2022-11-24T07:41:59.769Z,98838.84
2022-11-24T07:45:01.489Z,98880.63
2022-11-24T07:48:03.085Z,98874.41
2022-11-24T07:51:05.814Z,98871.56
2022-11-24T07:54:07.481Z,98825.31
2022-11-24T07:57:09.135Z,98864.09
2022-11-24T08:00:11.607Z,98871.56
2022-11-24T08:03:13.355Z,98873.78
2022-11-24T08:06:26.149Z,98875.69
2022-11-24T08:09:29.204Z,98877.22
2022-11-24T08:12:31.415Z,98880.09
2022-11-24T08:15:33.054Z,98894.00
2022-11-24T08:18:36.077Z,98901.44
2022-11-24T08:21:38.457Z,98896.25
2022-11-24T08:24:46.170Z,98884.72
2022-11-24T08:27:47.828Z,98891.97
2022-11-24T08:30:49.472Z,98902.31
2022-11-24T08:33:51.120Z,98903.56
2022-11-24T08:36:52.842Z,98912.63
2022-11-24T08:39:54.685Z,98903.47
2022-11-24T08:43:00.681Z,98912.34
2022-11-24T08:46:17.093Z,98890.97
2022-11-24T08:49:19.383Z,98905.06
2022-11-24T08:52:21.023Z,98906.19
2022-11-24T08:55:22.733Z,98899.69
2022-11-24T08:58:24.474Z,98876.09
2022-11-24T09:01:27.241Z,98907.00
2022-11-24T09:04:29.493Z,98910.94
2022-11-24T09:07:31.225Z,98921.25
2022-11-24T09:10:33.170Z,98904.16
2022-11-24T09:13:35.731Z,98925.22
2022-11-24T09:16:37.837Z,98931.22
2022-11-24T09:19:39.565Z,98939.50
2022-11-24T09:22:43.056Z,98946.31
2022-11-24T09:25:44.761Z,98955.81
2022-11-24T09:28:48.208Z,98963.41
2022-11-24T09:31:49.836Z,98952.34
2022-11-24T09:34:51.634Z,98971.81
2022-11-24T09:37:53.278Z,98971.03
2022-11-24T09:40:55.983Z,98973.88
2022-11-24T09:44:07.544Z,98978.13
2022-11-24T09:47:27.476Z,98979.09
2022-11-24T09:50:34.523Z,98987.63
2022-11-24T09:53:42.143Z,98975.16
2022-11-24T09:56:47.099Z,98992.06
2022-11-24T09:59:48.883Z,99001.09
2022-11-24T10:02:50.922Z,98998.25
2022-11-24T10:05:53.753Z,99005.22
2022-11-24T10:09:20.944Z,99006.47
2022-11-24T10:12:56.349Z,99009.16
2022-11-24T10:16:13.421Z,99008.84
2022-11-24T10:19:44.709Z,99007.88
2022-11-24T10:22:52.376Z,99012.31
2022-11-24T10:25:59.935Z,99007.22
2022-11-24T10:29:10.799Z,99019.13
2022-11-24T10:32:18.173Z,99003.88
2022-11-24T10:35:22.667Z,99018.63
2022-11-24T10:39:16.328Z,99024.31
2022-11-24T10:42:37.730Z,99025.72
2022-11-24T10:45:40.181Z,99012.28
2022-11-24T10:48:48.627Z,99014.88
2022-11-24T10:52:08.279Z,98998.56
2022-11-24T10:55:11.608Z,99000.69
2022-11-24T10:58:17.819Z,99022.44
2022-11-24T11:01:27.814Z,98998.22
2022-11-24T11:04:35.864Z,99000.66
2022-11-24T11:07:37.818Z,99010.94
2022-11-24T11:10:40.611Z,99017.78
2022-11-24T11:14:00.057Z,99008.44
2022-11-24T11:17:30.974Z,99018.31
2022-11-24T11:20:35.943Z,99016.22
2022-11-24T11:23:40.241Z,99015.59
2022-11-24T11:26:42.518Z,99016.81
2022-11-24T11:36:47.862Z,99026.75
2022-11-24T11:39:52.535Z,99023.06
2022-11-24T11:43:27.519Z,99006.13
2022-11-24T11:46:32.731Z,99029.56
2022-11-24T11:49:39.419Z,99009.47
2022-11-24T11:52:53.446Z,99016.75
2022-11-24T11:56:26.802Z,99011.41
2022-11-24T11:59:59.879Z,99004.53
2022-11-24T12:03:40.951Z,99013.94
2022-11-24T12:07:28.622Z,99017.78
2022-11-24T12:11:19.606Z,98970.78
2022-11-24T12:14:46.944Z,98991.63
2022-11-24T12:18:13.556Z,99017.13
2022-11-24T12:22:32.293Z,99038.50
2022-11-24T12:25:46.885Z,99005.75
2022-11-24T12:29:26.529Z,99047.66
2022-11-24T12:32:57.327Z,99044.34
2022-11-24T12:36:10.377Z,99052.41
2022-11-24T12:39:39.730Z,99046.88
2022-11-24T12:42:52.819Z,99049.75
2022-11-24T12:46:02.125Z,99032.88
2022-11-24T12:49:25.685Z,99036.25
2022-11-24T12:52:57.225Z,99026.78
2022-11-24T12:56:17.674Z,99028.13
2022-11-24T12:59:22.891Z,99021.16
2022-11-24T13:02:32.857Z,99014.56
2022-11-24T13:05:58.898Z,99024.03
2022-11-24T13:09:09.476Z,98999.44
2022-11-24T13:12:14.476Z,99004.84
2022-11-24T13:15:43.593Z,99007.88
2022-11-24T13:18:58.325Z,99006.03
2022-11-24T13:22:09.850Z,99011.34
2022-11-24T13:25:20.211Z,99020.28
2022-11-24T13:29:08.867Z,99021.28
2022-11-24T13:32:14.945Z,99020.06
2022-11-24T13:35:17.277Z,99022.66
2022-11-24T13:38:43.824Z,99019.94
2022-11-24T13:41:48.630Z,99016.78
2022-11-24T13:45:03.630Z,99012.50
2022-11-24T13:48:22.574Z,99013.97
2022-11-24T13:51:28.900Z,99008.06
2022-11-24T13:54:30.906Z,99004.59
2022-11-24T13:57:38.900Z,98991.91
2022-11-24T14:01:02.672Z,99003.19
2022-11-24T14:04:33.997Z,98995.19
2022-11-24T14:07:35.798Z,98999.00
2022-11-24T14:10:41.279Z,99004.38
2022-11-24T14:13:44.944Z,99006.75
2022-11-24T14:16:46.825Z,99004.81
2022-11-24T14:19:54.103Z,99010.06
2022-11-24T14:22:55.780Z,99002.16
2022-11-24T14:25:58.289Z,99016.69
2022-11-24T14:29:13.884Z,99004.66
2022-11-24T14:32:18.124Z,99018.19
2022-11-24T14:35:24.384Z,99010.47
2022-11-24T14:38:26.127Z,99010.03
2022-11-24T14:41:28.476Z,99002.28
2022-11-24T14:44:34.350Z,99004.19
2022-11-24T14:47:44.536Z,99014.06
2022-11-24T14:50:46.651Z,99008.56
2022-11-24T14:53:55.240Z,98996.50
2022-11-24T14:56:56.851Z,99004.09
2022-11-24T15:00:23.545Z,98996.28
2022-11-24T15:03:40.086Z,98987.44
2022-11-24T15:06:45.257Z,98985.06
2022-11-24T15:09:59.073Z,98987.53
2022-11-24T15:13:03.607Z,98982.25
2022-11-24T15:16:17.459Z,98985.59
2022-11-24T15:19:19.183Z,98986.00
2022-11-24T15:22:27.734Z,98987.19
2022-11-24T15:25:33.379Z,98990.44
2022-11-24T15:28:35.206Z,99000.91
2022-11-24T15:31:37.312Z,98995.41
2022-11-24T15:34:39.120Z,99001.78
2022-11-24T15:37:40.694Z,99005.88
2022-11-24T15:40:45.553Z,98995.09
2022-11-24T15:43:47.720Z,98992.25
2022-11-24T15:46:49.408Z,98985.59
2022-11-24T15:49:51.080Z,98982.59
2022-11-24T15:52:52.804Z,98977.94
2022-11-24T15:55:57.167Z,98983.28
2022-11-24T15:58:59.057Z,98988.81
2022-11-24T16:02:00.714Z,98982.66
2022-11-24T16:05:02.294Z,98992.13
2022-11-24T16:08:04.811Z,98995.88
2022-11-24T16:11:06.748Z,98997.00
2022-11-24T16:14:08.403Z,98998.88
2022-11-24T16:17:10.056Z,99002.69
2022-11-24T16:20:11.902Z,99008.69
2022-11-24T16:23:13.555Z,99012.56
2022-11-24T16:26:15.097Z,99014.59
2022-11-24T16:29:16.887Z,99012.31
2022-11-24T16:32:18.528Z,99009.50
2022-11-24T16:35:20.704Z,99007.78
2022-11-24T16:38:22.296Z,99020.56
2022-11-24T16:41:23.971Z,99009.75
2022-11-24T16:44:25.576Z,99005.22
2022-11-24T16:47:27.364Z,99000.94
2022-11-24T16:50:29.062Z,98999.03
2022-11-24T16:53:30.639Z,99006.25
2022-11-24T16:56:33.412Z,99007.41
2022-11-24T16:59:35.088Z,99009.50
2022-11-24T17:02:36.844Z,99011.94
2022-11-24T17:05:38.518Z,98991.22
2022-11-24T17:08:41.115Z,99002.63
2022-11-24T17:11:42.731Z,98992.00
2022-11-24T17:14:52.623Z,98999.94
2022-11-24T17:21:27.861Z,99024.03
2022-11-24T17:24:29.718Z,99031.25
2022-11-24T17:27:31.622Z,99037.41
2022-11-24T17:30:33.548Z,99030.66
2022-11-24T17:33:35.878Z,99019.06
2022-11-24T17:36:37.692Z,99023.34
2022-11-24T17:39:39.389Z,99016.06
2022-11-24T17:42:41.024Z,99028.66
2022-11-24T17:45:42.963Z,99011.13
2022-11-24T17:48:44.817Z,99017.50
2022-11-24T17:51:50.343Z,99014.03
2022-11-24T17:54:51.879Z,98997.88
2022-11-24T17:57:53.488Z,99009.78
2022-11-24T18:00:55.268Z,99005.97
2022-11-24T18:03:57.403Z,99006.72
2022-11-24T18:06:59.042Z,99007.38
2022-11-24T18:10:00.766Z,99013.84
2022-11-24T18:13:02.376Z,99010.50
2022-11-24T18:16:07.265Z,99003.66
2022-11-24T18:19:10.874Z,98996.69
2022-11-24T18:22:12.815Z,98989.34
2022-11-24T18:25:14.417Z,99002.34
2022-11-24T18:28:15.999Z,99000.50
2022-11-24T18:31:18.663Z,99003.78
2022-11-24T18:34:20.324Z,98995.50
2022-11-24T18:37:21.880Z,98988.91
2022-11-24T18:40:23.554Z,98984.41
2022-11-24T18:43:27.817Z,98992.94
2022-11-24T18:46:29.499Z,98993.94
2022-11-24T18:49:34.076Z,98995.22
2022-11-24T18:52:35.658Z,98986.19
2022-11-24T18:55:37.382Z,98990.16
2022-11-24T18:58:38.974Z,98979.13
2022-11-24T19:01:40.626Z,98994.25
2022-11-24T19:04:42.301Z,98983.34
2022-11-24T19:07:44.036Z,99005.19
2022-11-24T19:10:45.827Z,98988.41
2022-11-24T19:13:49.173Z,98983.84
2022-11-24T19:16:51.049Z,98985.09
2022-11-24T19:19:52.905Z,98988.31
2022-11-24T19:22:54.801Z,98991.53
2022-11-24T19:26:00.870Z,98994.47
2022-11-24T19:29:03.817Z,98982.88
2022-11-24T19:32:05.486Z,98979.25
2022-11-24T19:35:07.542Z,98982.38
2022-11-24T19:38:13.574Z,98982.09
2022-11-24T19:41:19.290Z,98990.56
2022-11-24T19:44:21.008Z,98992.44
2022-11-24T19:47:22.661Z,98987.44
2022-11-24T19:50:24.274Z,99001.16
2022-11-24T19:53:25.934Z,98984.16
2022-11-24T19:56:29.762Z,98992.91
2022-11-24T19:59:31.530Z,98984.50
2022-11-24T20:02:33.139Z,98996.72
2022-11-24T20:05:34.820Z,98995.16
2022-11-24T20:08:37.730Z,99001.44
2022-11-24T20:11:40.398Z,98996.09
2022-11-24T20:14:41.990Z,98992.25
2022-11-24T20:17:43.595Z,98992.84
2022-11-24T20:20:45.225Z,98996.09
2022-11-24T20:23:53.547Z,98997.56
2022-11-24T20:26:58.287Z,98979.25
2022-11-24T20:29:59.882Z,98974.09
2022-11-24T20:33:01.443Z,98978.47
2022-11-24T20:36:14.365Z,98987.28
2022-11-24T20:39:22.483Z,98984.22
2022-11-24T20:42:24.024Z,98974.97
2022-11-24T20:45:25.894Z,98984.63
2022-11-24T20:48:27.673Z,98991.91
2022-11-24T20:51:35.058Z,98995.09
2022-11-24T20:54:36.995Z,98987.63
2022-11-24T20:57:38.817Z,98983.91
2022-11-24T21:00:40.543Z,98986.59
2022-11-24T21:03:43.498Z,98984.09
2022-11-24T21:06:45.441Z,98984.09
2022-11-24T21:09:47.060Z,98975.69
2022-11-24T21:12:48.583Z,98976.94
2022-11-24T21:15:50.881Z,98977.31
2022-11-24T21:18:55.805Z,98973.41
2022-11-24T21:21:57.440Z,98971.31
2022-11-24T21:24:59.073Z,98983.56
2022-11-24T21:28:00.661Z,98977.19
2022-11-24T21:31:07.379Z,98978.78
2022-11-24T21:34:09.455Z,98977.38
2022-11-24T21:37:11.044Z,98970.97
2022-11-24T21:40:14.951Z,98967.19
2022-11-24T21:43:16.518Z,98964.75
2022-11-24T21:46:18.343Z,98962.59
2022-11-24T21:49:20.060Z,98958.28
2022-11-24T21:52:22.391Z,98961.03
2022-11-24T21:55:24.033Z,98952.66
2022-11-24T21:58:26.618Z,98951.16
2022-11-24T22:01:29.448Z,98948.09
2022-11-24T22:04:31.099Z,98949.72
2022-11-24T22:07:33.175Z,98957.28
2022-11-24T22:10:34.788Z,98950.72
2022-11-24T22:13:36.528Z,98946.75
2022-11-24T22:16:39.054Z,98949.09
2022-11-24T22:19:41.303Z,98957.97
2022-11-24T22:22:42.958Z,98963.66
2022-11-24T22:25:44.698Z,98974.25
2022-11-24T22:28:47.277Z,98979.75
2022-11-24T22:31:49.138Z,98981.06
2022-11-24T22:34:50.860Z,98970.28
2022-11-24T22:37:52.392Z,98974.47
2022-11-24T22:40:54.075Z,98971.88
2022-11-24T22:43:55.741Z,98982.47
2022-11-24T22:46:59.888Z,98985.25
2022-11-24T22:50:01.499Z,98992.56
2022-11-24T22:53:03.310Z,98983.31
2022-11-24T22:56:07.562Z,98999.78
2022-11-24T22:59:09.117Z,98995.91
2022-11-24T23:02:10.718Z,98989.38
2022-11-24T23:05:14.719Z,98994.63
2022-11-24T23:08:19.671Z,98994.88
2022-11-24T23:11:30.691Z,99005.88
2022-11-24T23:14:33.494Z,99000.19
2022-11-24T23:17:35.227Z,99013.84
2022-11-24T23:20:36.764Z,99003.25
2022-11-24T23:23:38.715Z,98994.72
2022-11-24T23:26:41.353Z,98987.28
2022-11-24T23:29:42.963Z,98970.22
2022-11-24T23:32:44.553Z,98961.16
2022-11-24T23:35:46.158Z,98973.94
2022-11-24T23:38:48.594Z,98979.25
2022-11-24T23:41:50.195Z,98976.94
2022-11-24T23:44:51.849Z,98979.41
2022-11-24T23:47:53.936Z,98974.50
2022-11-24T23:50:55.569Z,98970.50
2022-11-24T23:53:57.793Z,98952.91
2022-11-24T23:56:59.871Z,98968.53
